Time;durP1;ratioP1;P1;durP2;ratioP2;P2;SDS_P1;SDS_P2;PMS_P1;PMS_P2;Temp;Humidity;BMP_temperature;BMP_pressure;BME280_temperature;BME280_humidity;BME280_pressure;Samples;Min_cycle;Max_cycle;Signal;HPM_P1;HPM_P2
2022/09/16 00:00:57;;;;;;;3.58;3.08;;;;;;;11.08;100.00;97811.16;4235864;27;20393;-73
2022/09/16 00:02:57;;;;;;;4.63;3.00;;;;;;;11.08;100.00;97806.41;4234999;27;20142;-73
2022/09/16 00:04:58;;;;;;;6.63;3.28;;;;;;;11.07;100.00;97807.59;4235834;27;20038;-73
2022/09/16 00:06:58;;;;;;;4.40;3.08;;;;;;;11.07;100.00;97812.34;4236092;27;20112;-73
2022/09/16 00:08:59;;;;;;;4.32;3.10;;;;;;;11.06;100.00;97808.81;4235332;27;20039;-73
2022/09/16 00:11:01;;;;;;;5.75;3.35;;;;;;;11.02;100.00;97810.78;4235802;27;20038;-73
2022/09/16 00:13:02;;;;;;;4.70;3.10;;;;;;;11.04;100.00;97810.41;4235402;27;20051;-73
2022/09/16 00:15:03;;;;;;;4.95;3.40;;;;;;;11.03;100.00;97815.13;4235639;27;20357;-73
2022/09/16 00:17:04;;;;;;;4.68;3.13;;;;;;;11.04;99.32;97816.72;4235994;27;20407;-73
2022/09/16 00:19:04;;;;;;;4.13;2.38;;;;;;;11.03;99.37;97823.44;4234807;27;20043;-73
2022/09/16 00:21:09;;;;;;;3.95;2.90;;;;;;;11.00;99.09;97823.44;4235430;27;20043;-73
2022/09/16 00:23:09;;;;;;;2.75;2.50;;;;;;;11.00;99.10;97812.34;4235712;27;20091;-73
2022/09/16 00:25:10;;;;;;;4.07;2.67;;;;;;;11.00;98.58;97823.44;4235773;27;20166;-73
2022/09/16 00:27:10;;;;;;;3.92;2.22;;;;;;;10.99;98.14;97825.41;4235645;27;20044;-73
2022/09/16 00:29:10;;;;;;;2.83;2.38;;;;;;;10.97;98.25;97811.19;4235541;27;20439;-73
2022/09/16 00:31:11;;;;;;;4.78;2.58;;;;;;;10.98;98.11;97815.53;4235623;28;20880;-73
2022/09/16 00:33:11;;;;;;;2.95;2.30;;;;;;;10.95;97.07;97827.41;4235932;27;20066;-73
2022/09/16 00:35:11;;;;;;;2.80;2.40;;;;;;;10.93;96.84;97816.75;4235619;27;20046;-73
2022/09/16 00:37:12;;;;;;;4.10;2.35;;;;;;;10.92;97.00;97815.16;4235758;27;20035;-73
2022/09/16 00:39:13;;;;;;;4.00;2.17;;;;;;;10.90;97.35;97816.72;4235179;27;20481;-73
2022/09/16 00:41:19;;;;;;;3.38;2.38;;;;;;;10.87;97.11;97821.06;4235155;27;20039;-73
2022/09/16 00:43:19;;;;;;;3.65;2.53;;;;;;;10.86;96.90;97819.50;4235426;27;20108;-73
2022/09/16 00:45:22;;;;;;;3.28;2.30;;;;;;;10.87;96.38;97818.31;4235480;27;20146;-73
2022/09/16 00:47:33;;;;;;;2.92;1.90;;;;;;;10.98;93.93;97818.28;4235857;27;20474;-73
2022/09/16 00:49:34;;;;;;;3.03;1.70;;;;;;;10.97;94.38;97820.28;4234781;27;20070;-73
2022/09/16 00:51:35;;;;;;;2.75;1.98;;;;;;;10.96;93.90;97826.22;4235777;28;20066;-73
2022/09/16 00:53:44;;;;;;;4.38;2.00;;;;;;;10.90;94.46;97817.50;4235415;27;20121;-73
2022/09/16 00:55:45;;;;;;;5.35;2.28;;;;;;;10.93;93.71;97819.50;4234581;27;20425;-73
2022/09/16 00:57:46;;;;;;;4.93;2.40;;;;;;;10.90;94.49;97814.75;4236332;27;20126;-73
2022/09/16 00:59:52;;;;;;;3.08;1.70;;;;;;;10.92;93.89;97828.19;4235755;27;20048;-73
2022/09/16 01:01:54;;;;;;;4.25;1.90;;;;;;;10.91;93.69;97823.84;4235334;27;20039;-73
2022/09/16 01:04:00;;;;;;;3.40;2.20;;;;;;;10.99;91.97;97817.09;4235772;27;20116;-73
2022/09/16 01:06:02;;;;;;;5.35;1.75;;;;;;;10.99;93.07;97819.88;4235258;27;20046;-73
2022/09/16 01:08:03;;;;;;;2.33;1.80;;;;;;;11.00;92.83;97820.66;4234998;27;20031;-73
2022/09/16 01:10:03;;;;;;;4.57;2.00;;;;;;;10.94;93.28;97821.09;4234108;27;20027;-73
2022/09/16 01:12:04;;;;;;;5.47;2.10;;;;;;;10.96;93.44;97823.44;4234945;27;20458;-73
2022/09/16 01:16:38;;;;;;;4.65;2.10;;;;;;;10.87;94.05;97817.53;4236238;27;20432;-73
2022/09/16 01:19:04;;;;;;;4.70;1.95;;;;;;;10.86;93.86;97816.72;4236512;27;20100;-73
2022/09/16 01:21:14;;;;;;;3.47;2.17;;;;;;;10.87;93.55;97823.06;4238046;27;20043;-73
2022/09/16 01:23:56;;;;;;;5.95;2.20;;;;;;;10.89;93.38;97820.69;4238020;27;20047;-73
2022/09/16 01:26:30;;;;;;;2.63;1.70;;;;;;;10.89;94.23;97815.16;4235123;27;20062;-73
2022/09/16 01:28:49;;;;;;;4.40;1.85;;;;;;;10.93;93.69;97821.47;4237488;27;20035;-73
2022/09/16 01:31:15;;;;;;;5.50;1.58;;;;;;;11.01;92.73;97825.03;4237452;27;20051;-73
2022/09/16 01:33:20;;;;;;;3.47;1.92;;;;;;;10.90;93.65;97816.72;4237364;27;20043;-73
2022/09/16 01:35:45;;;;;;;5.82;1.90;;;;;;;10.85;93.82;97804.09;4238237;27;20043;-73
2022/09/16 01:38:09;;;;;;;3.25;1.85;;;;;;;10.84;94.00;97812.75;4237990;27;20741;-73
2022/09/16 01:40:41;;;;;;;6.30;2.15;;;;;;;10.80;94.31;97807.25;4235944;27;20047;-73
2022/09/16 01:43:10;;;;;;;4.93;1.88;;;;;;;10.80;94.55;97809.22;4219775;27;20051;-73
2022/09/16 01:45:29;;;;;;;3.05;1.73;;;;;;;10.79;94.87;97810.41;4237438;27;20047;-73
2022/09/16 01:47:40;;;;;;;1.70;1.60;;;;;;;10.75;94.08;97809.59;4237867;27;20507;-73
2022/09/16 01:50:02;;;;;;;4.00;2.10;;;;;;;10.76;94.01;97819.47;4237224;27;20059;-73
2022/09/16 01:52:27;;;;;;;3.08;1.60;;;;;;;10.73;94.27;97814.75;4237724;27;20457;-73
2022/09/16 01:54:45;;;;;;;5.07;1.50;;;;;;;10.68;94.57;97816.75;4237131;27;20513;-73
2022/09/16 01:56:58;;;;;;;1.27;1.17;;;;;;;10.66;93.10;97815.53;4237346;27;20043;-73
2022/09/16 01:59:06;;;;;;;2.80;1.35;;;;;;;10.64;93.93;97812.38;4237087;27;20612;-73
2022/09/16 02:01:36;;;;;;;4.30;1.50;;;;;;;10.61;94.13;97808.44;4237119;27;20043;-73
2022/09/16 02:03:41;;;;;;;2.95;1.20;;;;;;;10.58;93.53;97809.19;4234812;27;20051;-73
2022/09/16 02:05:52;;;;;;;2.13;1.42;;;;;;;10.58;93.18;97811.97;4237977;27;20047;-73
2022/09/16 02:08:00;;;;;;;4.65;1.20;;;;;;;10.57;93.14;97807.63;4237394;27;20043;-73
2022/09/16 02:10:09;;;;;;;1.10;1.00;;;;;;;10.58;93.40;97803.66;4236666;27;20483;-73
2022/09/16 02:12:16;;;;;;;3.38;1.65;;;;;;;10.55;93.62;97810.00;4237237;27;20388;-73
2022/09/16 02:14:23;;;;;;;1.85;1.23;;;;;;;10.52;93.87;97816.34;4237823;27;20050;-73
2022/09/16 02:16:34;;;;;;;4.43;1.90;;;;;;;10.52;94.36;97812.78;4237064;27;20039;-73
2022/09/16 02:18:39;;;;;;;3.88;1.50;;;;;;;10.49;94.48;97811.56;4237335;27;20427;-73
2022/09/16 02:20:43;;;;;;;2.63;1.30;;;;;;;10.48;94.39;97811.97;4237498;27;20100;-73
2022/09/16 02:23:06;;;;;;;2.75;1.50;;;;;;;10.46;95.07;97814.34;4237154;27;20073;-73
2022/09/16 02:25:10;;;;;;;6.72;1.75;;;;;;;10.42;95.11;97808.78;4237043;27;20510;-73
2022/09/16 02:27:16;;;;;;;2.85;1.45;;;;;;;10.39;95.42;97806.81;4237064;27;20078;-73
2022/09/16 02:29:24;;;;;;;3.13;1.60;;;;;;;10.35;95.07;97811.56;4235567;27;20510;-73
2022/09/16 02:31:31;;;;;;;2.00;1.42;;;;;;;10.36;95.21;97810.38;4236813;27;20046;-73
2022/09/16 02:33:54;;;;;;;2.88;1.80;;;;;;;10.39;93.91;97802.06;4237505;27;20081;-73
2022/09/16 02:35:55;;;;;;;2.80;1.50;;;;;;;10.37;94.47;97809.19;4237179;27;20046;-73
2022/09/16 02:38:00;;;;;;;2.78;1.73;;;;;;;10.37;94.00;97809.19;4236616;27;20032;-73
2022/09/16 02:40:07;;;;;;;2.22;1.52;;;;;;;10.39;93.00;97806.81;4237813;27;20043;-73
2022/09/16 02:42:07;;;;;;;2.47;1.58;;;;;;;10.38;93.81;97805.25;4236073;27;20482;-73
2022/09/16 02:44:09;;;;;;;2.80;1.50;;;;;;;10.46;93.04;97806.03;4237385;27;20038;-73
2022/09/16 02:46:21;;;;;;;4.32;1.70;;;;;;;10.39;92.91;97804.84;4236535;27;20118;-73
2022/09/16 02:48:34;;;;;;;1.77;1.33;;;;;;;10.32;93.60;97802.06;4235820;27;20421;-73
2022/09/16 02:50:39;;;;;;;2.83;2.08;;;;;;;10.22;94.40;97796.50;4236472;27;20368;-73
2022/09/16 02:53:11;;;;;;;4.47;1.60;;;;;;;10.22;94.74;97800.06;4236136;27;20051;-73
2022/09/16 02:55:20;;;;;;;4.18;1.65;;;;;;;10.20;94.79;97794.13;4230693;27;20138;-73
2022/09/16 02:57:21;;;;;;;2.08;1.60;;;;;;;10.11;95.71;97802.00;4236070;27;20843;-73
2022/09/16 02:59:22;;;;;;;2.10;1.55;;;;;;;10.06;95.55;97805.13;4236340;27;20356;-73
2022/09/16 03:01:23;;;;;;;2.17;1.60;;;;;;;10.00;96.25;97801.97;4237813;27;20156;-73
2022/09/16 03:03:24;;;;;;;2.67;1.45;;;;;;;9.94;96.89;97800.78;4236472;27;20040;-73
2022/09/16 03:05:29;;;;;;;3.20;1.52;;;;;;;9.88;98.18;97798.78;4237168;27;20138;-73
2022/09/16 03:07:30;;;;;;;2.88;1.70;;;;;;;9.86;98.02;97796.41;4236050;27;20047;-73
2022/09/16 03:09:35;;;;;;;3.78;1.50;;;;;;;9.81;98.52;97788.47;4217637;28;20483;-73
2022/09/16 03:11:51;;;;;;;3.45;1.60;;;;;;;9.82;97.77;97788.09;4236362;27;20122;-73
2022/09/16 03:14:31;;;;;;;4.70;1.65;;;;;;;9.80;98.43;97786.91;4235382;27;20582;-73
2022/09/16 03:16:46;;;;;;;1.60;1.38;;;;;;;9.76;98.76;97792.44;4236638;27;20027;-73
2022/09/16 03:18:52;;;;;;;3.08;1.80;;;;;;;9.77;98.78;97782.16;4231883;27;20047;-73
2022/09/16 03:21:05;;;;;;;3.05;1.65;;;;;;;9.79;98.92;97785.31;4235083;27;20051;-73
2022/09/16 03:23:25;;;;;;;2.05;1.60;;;;;;;9.81;98.88;97794.81;4234050;27;20057;-73
2022/09/16 03:25:44;;;;;;;2.90;1.58;;;;;;;9.86;98.05;97788.13;4234559;27;20035;-73
2022/09/16 03:27:52;;;;;;;2.13;1.50;;;;;;;9.91;97.98;97787.72;4235877;27;20127;-73
2022/09/16 03:30:00;;;;;;;2.70;1.70;;;;;;;9.92;97.77;97792.06;4234125;27;20527;-73
2022/09/16 03:32:14;;;;;;;3.42;2.00;;;;;;;9.94;97.93;97794.47;4235551;27;20074;-73
2022/09/16 03:34:22;;;;;;;2.75;1.75;;;;;;;9.88;97.95;97790.50;4233391;27;20045;-73
2022/09/16 03:36:29;;;;;;;2.92;2.00;;;;;;;9.83;98.92;97794.41;4233875;27;20039;-73
2022/09/16 03:38:34;;;;;;;2.55;1.70;;;;;;;9.83;98.45;97797.16;4234562;27;20039;-73
2022/09/16 03:40:36;;;;;;;2.28;1.65;;;;;;;9.80;98.39;97798.75;4234977;27;20129;-73
2022/09/16 03:42:41;;;;;;;3.13;1.80;;;;;;;9.79;98.16;97799.94;4235904;27;20043;-73
2022/09/16 03:44:41;;;;;;;5.57;1.90;;;;;;;9.75;98.45;97795.56;4232635;27;20102;-73
2022/09/16 03:46:42;;;;;;;4.97;2.10;;;;;;;9.73;98.63;97803.44;4234131;27;20047;-73
2022/09/16 03:48:42;;;;;;;4.25;1.90;;;;;;;9.62;98.30;97797.88;4232102;27;20138;-73
2022/09/16 03:50:43;;;;;;;3.35;1.77;;;;;;;9.54;98.44;97797.06;4236064;27;20058;-73
2022/09/16 03:52:43;;;;;;;6.03;2.10;;;;;;;9.52;98.57;97791.16;4234947;27;20134;-73
2022/09/16 03:54:43;;;;;;;5.60;2.75;;;;;;;9.45;98.74;97793.06;4236609;27;20408;-73
2022/09/16 03:56:43;;;;;;;6.05;2.38;;;;;;;9.42;99.48;97788.31;4237001;27;20055;-73
2022/09/16 03:58:46;;;;;;;3.15;2.10;;;;;;;9.40;99.34;97790.69;4234930;27;20065;-73
2022/09/16 04:00:49;;;;;;;3.97;2.05;;;;;;;9.40;99.54;97796.19;4235851;27;20520;-73
2022/09/16 04:02:50;;;;;;;2.92;2.35;;;;;;;9.42;98.83;97782.78;4234106;27;20046;-73
2022/09/16 04:04:51;;;;;;;4.50;2.55;;;;;;;9.43;99.11;97782.44;4234762;27;20502;-73
2022/09/16 04:06:51;;;;;;;3.53;2.85;;;;;;;9.48;99.23;97775.72;4235118;27;20281;-73
2022/09/16 04:08:52;;;;;;;5.07;2.97;;;;;;;9.49;98.35;97777.31;4235194;27;20079;-73
2022/09/16 04:10:57;;;;;;;7.78;3.28;;;;;;;9.50;98.48;97781.66;4235495;27;20155;-73
2022/09/16 04:12:57;;;;;;;6.85;3.58;;;;;;;9.49;98.90;97785.59;4234973;27;20047;-73
2022/09/16 04:14:57;;;;;;;5.60;3.30;;;;;;;9.50;98.87;97796.25;4235348;27;20039;-73
2022/09/16 04:16:58;;;;;;;5.05;3.50;;;;;;;9.50;99.40;97795.44;4235793;27;20130;-73
2022/09/16 04:18:58;;;;;;;3.70;3.30;;;;;;;9.49;99.20;97788.34;4231561;27;20165;-73
2022/09/16 04:21:00;;;;;;;5.07;3.40;;;;;;;9.50;98.96;97785.19;4233835;27;20478;-73
2022/09/16 04:23:01;;;;;;;8.57;3.78;;;;;;;9.47;99.39;97788.75;4234840;27;20461;-73
2022/09/16 04:25:01;;;;;;;5.78;3.10;;;;;;;9.50;100.00;97792.69;4235639;27;20047;-73
2022/09/16 04:27:02;;;;;;;6.72;3.38;;;;;;;9.52;100.00;97791.16;4236205;27;20482;-73
2022/09/16 04:29:02;;;;;;;5.13;3.22;;;;;;;9.52;99.41;97784.84;4234917;28;20057;-73
2022/09/16 04:31:06;;;;;;;6.05;3.20;;;;;;;9.57;99.49;97795.50;4236248;27;20043;-73
2022/09/16 04:33:06;;;;;;;4.10;2.97;;;;;;;9.60;99.24;97791.97;4233925;27;20054;-73
2022/09/16 04:35:07;;;;;;;4.72;3.38;;;;;;;9.67;98.80;97791.19;4235635;27;20047;-73
2022/09/16 04:37:07;;;;;;;4.05;3.30;;;;;;;9.67;98.78;97793.94;4235727;27;20490;-73
2022/09/16 04:39:07;;;;;;;7.05;4.30;;;;;;;9.66;98.80;97793.16;4235823;27;20541;-73
2022/09/16 04:41:11;;;;;;;8.63;3.83;;;;;;;9.67;99.00;97789.22;4235391;27;20075;-73
2022/09/16 04:43:12;;;;;;;7.30;4.40;;;;;;;9.66;99.41;97782.09;4235731;27;20078;-73
2022/09/16 04:45:12;;;;;;;7.82;4.43;;;;;;;9.65;98.94;97788.81;4234721;27;20040;-73
2022/09/16 04:47:13;;;;;;;5.75;4.18;;;;;;;9.67;98.94;97780.94;4235929;27;20233;-73
2022/09/16 04:49:13;;;;;;;7.05;4.65;;;;;;;9.65;98.98;97780.53;4236498;27;20090;-73
2022/09/16 04:51:13;;;;;;;4.82;4.07;;;;;;;9.70;98.31;97777.41;4239597;27;20043;-73
2022/09/16 04:53:14;;;;;;;11.50;4.15;;;;;;;9.72;98.40;97785.28;4239680;27;20456;-73
2022/09/16 04:55:14;;;;;;;9.35;4.13;;;;;;;9.71;98.32;97776.22;4238969;27;20134;-73
2022/09/16 04:57:14;;;;;;;6.88;4.50;;;;;;;9.68;98.19;97771.50;4239248;27;20043;-73
2022/09/16 04:59:15;;;;;;;5.72;3.70;;;;;;;9.65;98.80;97779.75;4239147;27;20491;-73
2022/09/16 05:01:18;;;;;;;7.45;4.05;;;;;;;9.61;98.77;97779.75;4238699;27;20047;-73
2022/09/16 05:03:18;;;;;;;7.78;4.10;;;;;;;9.59;98.67;97779.31;4238804;27;20092;-73
2022/09/16 05:05:19;;;;;;;8.77;4.40;;;;;;;9.53;99.13;97780.88;4238831;27;20047;-73
2022/09/16 05:07:20;;;;;;;5.85;4.25;;;;;;;9.50;99.51;97787.97;4239471;27;20463;-73
2022/09/16 05:09:23;;;;;;;6.35;4.05;;;;;;;9.44;100.00;97792.28;4238387;27;20088;-73
2022/09/16 05:11:29;;;;;;;5.85;3.88;;;;;;;9.40;100.00;97790.69;4238621;27;20047;-73
2022/09/16 05:13:29;;;;;;;4.85;3.60;;;;;;;9.37;100.00;97792.25;4238770;27;20120;-73
2022/09/16 05:15:29;;;;;;;6.85;4.38;;;;;;;9.32;100.00;97789.84;4238829;27;20075;-73
2022/09/16 05:17:30;;;;;;;6.40;4.03;;;;;;;9.32;100.00;97789.06;4239761;27;20089;-73
2022/09/16 05:19:30;;;;;;;4.25;3.50;;;;;;;9.30;100.00;97794.97;4239021;27;20482;-73
2022/09/16 05:21:34;;;;;;;7.70;4.40;;;;;;;9.33;100.00;97802.47;4238875;27;20105;-73
2022/09/16 05:23:34;;;;;;;6.78;3.50;;;;;;;9.34;100.00;97795.75;4238604;27;20075;-73
2022/09/16 05:25:35;;;;;;;7.30;4.13;;;;;;;9.34;100.00;97798.53;4238508;27;20353;-73
2022/09/16 05:27:35;;;;;;;7.75;4.75;;;;;;;9.34;100.00;97795.75;4238766;27;20039;-73
2022/09/16 05:29:36;;;;;;;9.25;4.40;;;;;;;9.31;99.99;97793.00;4238316;27;20066;-73
2022/09/16 05:31:39;;;;;;;6.13;4.47;;;;;;;9.30;100.00;97800.50;4238228;27;20074;-73
2022/09/16 05:33:41;;;;;;;6.85;4.53;;;;;;;9.29;100.00;97801.66;4238277;27;20039;-73
2022/09/16 05:35:42;;;;;;;10.10;4.40;;;;;;;9.26;100.00;97796.91;4238550;27;20047;-73
2022/09/16 05:37:42;;;;;;;6.93;4.60;;;;;;;9.29;100.00;97785.09;4237947;27;20116;-73
2022/09/16 05:39:43;;;;;;;9.57;4.30;;;;;;;9.33;100.00;97796.94;4237662;27;20051;-73
2022/09/16 05:41:44;;;;;;;6.75;4.38;;;;;;;9.34;100.00;97798.53;4239516;27;20121;-73
2022/09/16 05:43:44;;;;;;;6.80;4.60;;;;;;;9.40;100.00;97797.00;4239504;27;20825;-73
2022/09/16 05:45:50;;;;;;;8.50;4.75;;;;;;;9.43;99.97;97801.75;4238244;27;20038;-73
2022/09/16 05:47:51;;;;;;;10.45;4.90;;;;;;;9.44;99.87;97799.78;4238576;27;20061;-73
2022/09/16 05:49:53;;;;;;;8.18;5.78;;;;;;;9.49;100.00;97791.13;4237633;27;20043;-73
2022/09/16 05:51:54;;;;;;;10.40;5.75;;;;;;;9.50;99.79;97790.72;4238081;27;20051;-73
2022/09/16 05:53:54;;;;;;;11.05;5.18;;;;;;;9.56;99.73;97799.44;4238081;27;20039;-73
2022/09/16 05:55:59;;;;;;;9.18;5.65;;;;;;;9.61;99.08;97793.56;4238601;27;20034;-73
2022/09/16 05:57:59;;;;;;;10.57;6.38;;;;;;;9.65;98.78;97794.34;4238143;27;20060;-73
2022/09/16 05:59:59;;;;;;;13.63;6.20;;;;;;;9.71;98.54;97797.53;4237493;27;20838;-73
2022/09/16 06:02:00;;;;;;;6.78;5.30;;;;;;;9.74;97.60;97805.03;4237124;27;20044;-73
2022/09/16 06:04:03;;;;;;;8.95;5.13;;;;;;;9.81;96.77;97796.78;4236494;27;20043;-73
2022/09/16 06:06:03;;;;;;;9.15;5.07;;;;;;;9.84;97.08;97801.50;4236992;27;20317;-73
2022/09/16 06:08:03;;;;;;;6.10;4.90;;;;;;;9.89;96.68;97798.38;4238255;27;20442;-73
2022/09/16 06:10:04;;;;;;;6.35;4.68;;;;;;;9.95;95.88;97801.56;4237573;27;20217;-73
2022/09/16 06:12:05;;;;;;;8.80;5.40;;;;;;;9.99;95.86;97794.84;4237615;27;20058;-73
2022/09/16 06:14:07;;;;;;;6.85;4.28;;;;;;;10.05;95.05;97790.53;4236813;27;20545;-73
2022/09/16 06:16:09;;;;;;;6.00;4.32;;;;;;;10.07;95.17;97787.38;4237405;27;20032;-72
2022/09/16 06:18:10;;;;;;;7.70;4.50;;;;;;;10.07;94.73;97788.16;4238827;27;20035;-73
2022/09/16 06:20:13;;;;;;;5.75;3.83;;;;;;;10.06;95.04;97788.56;4237974;27;20019;-73
2022/09/16 06:22:13;;;;;;;7.55;4.50;;;;;;;10.04;94.74;97783.44;4237483;27;20035;-73
2022/09/16 06:24:16;;;;;;;6.10;4.07;;;;;;;10.03;94.69;97781.06;4237277;27;20034;-73
2022/09/16 06:26:19;;;;;;;7.88;4.63;;;;;;;10.02;94.39;97785.78;4238143;27;20042;-73
2022/09/16 06:28:20;;;;;;;9.98;4.97;;;;;;;10.02;94.50;97785.78;4237536;27;20034;-73
2022/09/16 06:30:20;;;;;;;8.32;4.15;;;;;;;10.07;93.64;97779.09;4236892;27;20043;-73
2022/09/16 06:32:20;;;;;;;5.78;4.30;;;;;;;10.12;93.71;97787.00;4237518;27;20054;-73
2022/09/16 06:34:21;;;;;;;7.30;4.25;;;;;;;10.15;93.18;97791.72;4237508;27;20051;-73
2022/09/16 06:36:27;;;;;;;7.50;4.25;;;;;;;10.25;93.54;97790.19;4237677;27;20089;-73
2022/09/16 06:38:28;;;;;;;4.53;4.00;;;;;;;10.34;92.81;97782.31;4237072;27;20118;-73
2022/09/16 06:40:28;;;;;;;5.35;4.30;;;;;;;10.45;91.94;97785.91;4237667;27;20541;-73
2022/09/16 06:42:29;;;;;;;5.38;4.35;;;;;;;10.64;91.28;97781.94;4237892;27;20146;-72
2022/09/16 06:44:29;;;;;;;7.28;4.68;;;;;;;10.65;90.64;97778.00;4236786;27;20043;-73
2022/09/16 06:46:29;;;;;;;4.75;4.22;;;;;;;10.69;90.91;97778.78;4237063;27;20482;-73
2022/09/16 06:48:32;;;;;;;5.85;4.07;;;;;;;10.72;90.08;97777.19;4236893;27;20429;-73
2022/09/16 06:50:33;;;;;;;4.47;3.42;;;;;;;10.84;88.88;97783.13;4173201;27;20043;-73
2022/09/16 06:52:33;;;;;;;3.50;3.13;;;;;;;10.89;87.96;97774.41;4237051;27;20035;-72
2022/09/16 06:54:34;;;;;;;3.00;2.80;;;;;;;10.89;87.74;97781.94;4237059;27;20126;-72
2022/09/16 06:56:36;;;;;;;4.45;2.83;;;;;;;10.95;86.25;97789.44;4236715;27;20058;-73
2022/09/16 06:58:40;;;;;;;3.20;2.83;;;;;;;11.06;85.52;97788.63;4237180;27;20081;-72
2022/09/16 07:00:40;;;;;;;5.93;2.97;;;;;;;10.98;85.47;97783.09;4237843;27;20306;-72
2022/09/16 07:02:41;;;;;;;5.68;3.17;;;;;;;11.00;85.31;97798.53;4236981;27;20043;-72
2022/09/16 07:04:41;;;;;;;3.97;3.00;;;;;;;10.96;85.77;97801.31;4237248;27;20074;-72
2022/09/16 07:06:42;;;;;;;3.33;3.00;;;;;;;10.96;86.13;97795.78;4237416;27;20077;-72
2022/09/16 07:08:43;;;;;;;4.70;3.42;;;;;;;10.91;85.94;97794.19;4236434;27;20538;-72
2022/09/16 07:10:43;;;;;;;3.10;2.67;;;;;;;11.01;86.14;97789.84;4236644;27;20043;-72
2022/09/16 07:12:44;;;;;;;4.57;2.70;;;;;;;11.11;87.28;97796.53;4236702;27;20415;-73
2022/09/16 07:14:44;;;;;;;4.25;2.72;;;;;;;11.08;85.42;97791.78;4236232;27;20082;-72
2022/09/16 07:16:44;;;;;;;3.38;2.50;;;;;;;11.11;86.77;97793.78;4236771;27;20047;-72
2022/09/16 07:18:47;;;;;;;3.88;2.70;;;;;;;11.12;84.95;97789.81;4236341;27;20051;-72
2022/09/16 07:20:47;;;;;;;2.75;2.33;;;;;;;11.15;85.13;97797.31;4236934;27;20459;-72
2022/09/16 07:22:49;;;;;;;4.65;3.17;;;;;;;11.14;85.71;97788.22;4237335;27;20051;-72
2022/09/16 07:24:49;;;;;;;4.47;2.85;;;;;;;11.14;85.69;97790.22;4238007;27;20479;-73
2022/09/16 07:26:50;;;;;;;4.32;3.00;;;;;;;11.15;85.77;97792.56;4237515;27;20054;-72
2022/09/16 07:28:51;;;;;;;3.60;3.05;;;;;;;11.17;83.91;97790.22;4237056;27;20042;-72
2022/09/16 07:30:51;;;;;;;4.28;2.80;;;;;;;11.38;82.82;97796.88;4236766;27;20051;-72
2022/09/16 07:32:52;;;;;;;4.20;2.80;;;;;;;11.42;83.64;97790.16;4237581;27;20046;-72
2022/09/16 07:34:52;;;;;;;4.93;2.85;;;;;;;11.43;83.82;97802.03;4236824;27;20090;-73
2022/09/16 07:36:53;;;;;;;4.38;2.42;;;;;;;11.44;83.26;97800.81;4237644;27;20077;-72
2022/09/16 07:38:58;;;;;;;4.38;2.78;;;;;;;11.39;84.14;97799.25;4236411;27;20059;-73
2022/09/16 07:41:12;;;;;;;5.07;2.50;;;;;;;11.37;83.21;97798.06;4236990;27;20047;-72
2022/09/16 07:43:13;;;;;;;3.17;2.40;;;;;;;11.43;82.92;97808.34;4236135;27;20387;-73
2022/09/16 07:45:13;;;;;;;3.72;2.03;;;;;;;11.46;81.80;97802.00;4236542;27;20130;-72
2022/09/16 07:47:13;;;;;;;4.45;2.47;;;;;;;11.46;81.75;97815.06;4236681;27;20343;-72
2022/09/16 07:49:14;;;;;;;2.88;2.20;;;;;;;11.51;80.11;97803.59;4236211;27;20051;-72
2022/09/16 07:51:20;;;;;;;2.90;2.13;;;;;;;11.42;79.37;97801.22;4236228;27;20449;-72
2022/09/16 07:53:21;;;;;;;4.90;2.10;;;;;;;11.36;81.72;97815.88;4236246;27;20043;-73
2022/09/16 07:55:21;;;;;;;4.30;2.67;;;;;;;11.34;81.85;97830.13;4236653;27;20427;-72
2022/09/16 07:57:21;;;;;;;4.30;2.60;;;;;;;11.41;79.79;97807.16;4236098;27;20039;-72
2022/09/16 07:59:22;;;;;;;3.83;2.42;;;;;;;11.47;80.83;97820.19;4235769;27;20035;-72
2022/09/16 08:01:23;;;;;;;5.43;3.10;;;;;;;11.60;80.99;97826.09;4236724;27;20075;-72
2022/09/16 08:03:24;;;;;;;2.97;2.70;;;;;;;11.68;81.37;97821.34;4235995;27;20031;-72
2022/09/16 08:05:24;;;;;;;7.75;2.90;;;;;;;11.88;79.92;97814.16;4236331;27;20487;-73
2022/09/16 08:07:24;;;;;;;4.63;2.72;;;;;;;12.03;80.00;97815.66;4236933;27;20622;-73
2022/09/16 08:09:25;;;;;;;5.93;2.78;;;;;;;12.09;79.22;97813.28;4235842;27;20039;-73
2022/09/16 08:11:26;;;;;;;4.15;2.60;;;;;;;12.21;79.53;97807.25;4235652;27;20051;-73
2022/09/16 08:13:29;;;;;;;3.90;2.47;;;;;;;12.29;79.71;97813.53;4235877;28;20043;-73
2022/09/16 08:15:29;;;;;;;2.30;2.05;;;;;;;12.37;78.11;97818.66;4236612;27;20253;-73
2022/09/16 08:17:29;;;;;;;3.55;2.03;;;;;;;12.41;77.82;97820.59;4236157;27;20560;-72
2022/09/16 08:19:30;;;;;;;3.20;2.30;;;;;;;12.35;77.74;97812.72;4235620;27;20047;-73
2022/09/16 08:21:30;;;;;;;3.10;2.33;;;;;;;12.24;77.39;97822.28;4235321;27;20047;-73
2022/09/16 08:23:30;;;;;;;3.22;2.30;;;;;;;12.12;76.90;97809.69;4236274;27;20039;-72
2022/09/16 08:25:31;;;;;;;2.97;1.83;;;;;;;11.95;76.91;97825.22;4239334;27;20383;-72
2022/09/16 08:27:35;;;;;;;5.15;2.03;;;;;;;12.00;76.63;97815.69;4238534;27;20043;-72
2022/09/16 08:29:35;;;;;;;2.67;1.98;;;;;;;11.96;76.12;97810.16;4238944;27;20050;-72
2022/09/16 08:31:37;;;;;;;5.25;2.00;;;;;;;11.87;75.62;97820.88;4239372;27;20375;-72
2022/09/16 08:33:39;;;;;;;2.55;1.95;;;;;;;11.93;75.60;97826.81;4239424;27;20050;-72
2022/09/16 08:35:39;;;;;;;2.45;1.65;;;;;;;11.87;75.62;97820.88;4238014;27;20043;-72
2022/09/16 08:37:40;;;;;;;5.00;2.40;;;;;;;11.87;76.57;97826.44;4239654;27;20070;-72
2022/09/16 08:39:40;;;;;;;4.38;2.22;;;;;;;11.92;77.07;97811.38;4238722;27;20051;-72
2022/09/16 08:41:49;;;;;;;3.25;2.47;;;;;;;12.05;77.12;97821.59;4239303;27;20039;-73
2022/09/16 08:44:01;;;;;;;4.25;2.05;;;;;;;12.01;75.95;97820.03;4239478;27;20111;-72
2022/09/16 08:46:13;;;;;;;6.15;2.45;;;;;;;12.08;75.64;97823.56;4239463;27;20046;-73
2022/09/16 08:48:23;;;;;;;2.72;2.08;;;;;;;12.09;75.30;97821.59;4240215;27;20026;-73
2022/09/16 08:50:29;;;;;;;4.15;2.10;;;;;;;12.11;73.92;97810.88;4239774;27;20386;-72
2022/09/16 08:52:33;;;;;;;3.45;2.47;;;;;;;12.17;74.82;97820.34;4239439;27;20050;-72
2022/09/16 08:54:51;;;;;;;3.33;2.10;;;;;;;12.31;75.01;97825.81;4238264;27;20042;-73
2022/09/16 08:57:00;;;;;;;4.13;2.13;;;;;;;12.51;74.71;97816.97;4239537;27;20082;-72
2022/09/16 08:59:03;;;;;;;4.80;2.00;;;;;;;12.79;73.38;97811.22;4238277;27;20051;-73
2022/09/16 09:01:30;;;;;;;3.05;2.35;;;;;;;12.89;70.65;97807.56;4239319;27;20062;-73
2022/09/16 09:03:39;;;;;;;3.58;1.88;;;;;;;13.19;71.65;97809.69;4185549;27;20041;-73
2022/09/16 09:05:57;;;;;;;3.30;1.80;;;;;;;13.36;70.51;97801.59;4238806;27;20083;-73
2022/09/16 09:08:20;;;;;;;3.33;1.83;;;;;;;13.46;70.17;97809.81;4238925;27;20059;-73
2022/09/16 09:10:38;;;;;;;2.20;1.83;;;;;;;13.52;69.98;97812.94;4238288;27;20057;-72
2022/09/16 09:12:47;;;;;;;3.40;1.70;;;;;;;13.64;69.77;97808.81;4238704;27;20595;-73
2022/09/16 09:15:13;;;;;;;1.85;1.50;;;;;;;13.70;70.16;97810.75;4238800;27;20487;-73
2022/09/16 09:17:44;;;;;;;4.72;1.98;;;;;;;13.52;67.67;97814.94;4238763;27;20043;-73
2022/09/16 09:20:17;;;;;;;4.07;1.80;;;;;;;13.39;67.89;97823.00;4238550;27;20329;-73
2022/09/16 09:22:23;;;;;;;2.90;1.80;;;;;;;13.29;70.39;97808.00;4169281;28;20805;-73
2022/09/16 09:24:56;;;;;;;4.35;1.98;;;;;;;13.28;70.63;97811.22;4236937;27;20135;-73
2022/09/16 09:27:25;;;;;;;4.18;1.85;;;;;;;13.30;68.94;97808.81;4238796;27;20058;-73
2022/09/16 09:29:54;;;;;;;2.83;1.70;;;;;;;13.29;70.36;97805.22;4238944;27;20046;-73
2022/09/16 09:32:00;;;;;;;3.70;2.05;;;;;;;13.37;70.47;97811.50;4234017;27;20055;-73
2022/09/16 09:34:31;;;;;;;3.17;1.80;;;;;;;13.43;68.55;97807.09;4238575;27;20055;-73
2022/09/16 09:36:58;;;;;;;3.53;1.77;;;;;;;13.47;69.45;97802.28;4238801;27;20047;-73
2022/09/16 09:39:01;;;;;;;2.22;1.50;;;;;;;13.48;70.17;97801.06;4237426;27;20522;-73
2022/09/16 09:41:11;;;;;;;3.25;2.28;;;;;;;13.50;70.06;97801.47;4238501;27;20475;-73
2022/09/16 09:43:34;;;;;;;2.70;1.80;;;;;;;13.27;68.58;97810.41;4239077;27;20404;-73
2022/09/16 09:45:57;;;;;;;2.83;1.80;;;;;;;13.29;69.47;97798.91;4238070;27;20061;-73
2022/09/16 09:48:09;;;;;;;2.95;1.70;;;;;;;13.34;71.17;97807.56;4238070;27;20755;-73
2022/09/16 09:50:22;;;;;;;4.78;1.70;;;;;;;13.37;70.70;97800.41;4237743;27;20559;-73
2022/09/16 09:52:38;;;;;;;2.65;1.60;;;;;;;13.36;69.51;97802.38;4238509;27;20053;-73
2022/09/16 09:54:44;;;;;;;2.47;1.73;;;;;;;13.35;70.49;97800.03;4238332;27;20047;-73